Time;durP1;ratioP1;P1;durP2;ratioP2;P2;SDS_P1;SDS_P2;PMS_P1;PMS_P2;Temp;Humidity;BMP_temperature;BMP_pressure;BME280_temperature;BME280_humidity;BME280_pressure;Samples;Min_cycle;Max_cycle;Signal;HPM_P1;HPM_P2
2022/04/12 00:00:23;;;;;;;3.50;1.80;;;0.30;99.90;-0.10;100797.00;;;;4877507;28;110533;-65
2022/04/12 00:02:49;;;;;;;1.87;1.77;;;0.30;99.90;-0.10;100795.00;;;;4877912;28;109156;-65
2022/04/12 00:05:15;;;;;;;1.30;1.20;;;0.20;99.90;-0.20;100790.00;;;;4877001;28;117685;-64
2022/04/12 00:07:43;;;;;;;2.47;1.97;;;0.10;99.90;-0.20;100790.00;;;;4859931;28;88438;-64
2022/04/12 00:10:11;;;;;;;1.93;1.67;;;0.10;99.90;-0.30;100783.00;;;;4860127;28;88848;-64
2022/04/12 00:12:37;;;;;;;2.07;1.87;;;0.10;99.90;-0.30;100796.00;;;;4859950;28;87677;-64
2022/04/12 00:15:08;;;;;;;1.60;1.50;;;0.10;99.90;-0.30;100791.00;;;;4858960;28;87985;-65
2022/04/12 00:20:21;;;;;;;2.93;1.93;;;0.00;99.90;-0.40;100787.00;;;;4857949;28;87906;-65
2022/04/12 00:22:47;;;;;;;2.23;1.90;;;0.00;99.90;-0.40;100794.00;;;;4866664;28;87870;-64
2022/04/12 00:25:13;;;;;;;2.07;1.87;;;-0.10;99.90;-0.30;100794.00;;;;4878851;28;118053;-64
2022/04/12 00:27:42;;;;;;;3.30;2.53;;;0.00;99.90;-0.40;100785.00;;;;4872938;28;88657;-65
2022/04/12 00:30:13;;;;;;;3.90;2.10;;;-0.10;99.90;-0.40;100789.00;;;;4859577;28;96253;-65
2022/04/12 00:32:39;;;;;;;2.53;2.33;;;0.00;99.90;-0.40;100781.00;;;;4860033;28;87680;-64
2022/04/12 00:35:06;;;;;;;2.93;2.30;;;-0.10;99.90;-0.40;100781.00;;;;4859205;28;89579;-65
2022/04/12 00:37:32;;;;;;;4.73;2.77;;;-0.10;99.90;-0.40;100777.00;;;;4859661;28;89684;-65
2022/04/12 00:39:58;;;;;;;1.93;1.83;;;-0.10;99.90;-0.30;100781.00;;;;4865199;28;100399;-65
2022/04/12 00:42:23;;;;;;;1.57;1.47;;;0.00;99.90;-0.30;100777.00;;;;4873163;28;96788;-66
2022/04/12 00:44:49;;;;;;;1.77;1.43;;;0.00;99.90;-0.40;100782.00;;;;4857915;28;116580;-65
2022/04/12 00:47:15;;;;;;;2.20;1.67;;;-0.10;99.90;-0.40;100795.00;;;;4862519;28;88550;-65
2022/04/12 00:49:42;;;;;;;2.03;1.80;;;-0.10;99.90;-0.40;100791.00;;;;4858889;28;108022;-65
2022/04/12 00:52:09;;;;;;;2.17;1.77;;;-0.10;99.90;-0.50;100787.00;;;;4874871;28;87173;-65
2022/04/12 00:54:36;;;;;;;4.03;1.90;;;-0.20;99.90;-0.50;100783.00;;;;4868594;28;93065;-65
2022/04/12 00:57:04;;;;;;;2.23;2.03;;;-0.10;99.90;-0.40;100783.00;;;;4873154;28;87838;-65
2022/04/12 00:59:33;;;;;;;4.63;2.60;;;0.00;99.90;-0.40;100782.00;;;;4878694;28;88742;-65
2022/04/12 01:02:02;;;;;;;3.43;2.20;;;-0.10;99.90;-0.40;100788.00;;;;4878123;28;88065;-65
2022/04/12 01:04:28;;;;;;;2.83;2.63;;;-0.10;99.90;-0.40;100775.00;;;;4877949;28;89482;-65
2022/04/12 01:06:53;;;;;;;3.07;1.90;;;-0.10;99.90;-0.40;100766.00;;;;4867173;28;96694;-65
2022/04/12 01:09:21;;;;;;;1.67;1.57;;;-0.10;99.90;-0.40;100771.00;;;;4859806;28;87711;-65
2022/04/12 01:11:48;;;;;;;3.27;2.13;;;-0.10;99.90;-0.40;100767.00;;;;4859409;28;87654;-65
2022/04/12 01:14:15;;;;;;;2.73;2.23;;;-0.10;99.90;-0.50;100763.00;;;;4859799;28;89123;-65
2022/04/12 01:16:41;;;;;;;2.30;2.13;;;-0.10;99.90;-0.50;100762.00;;;;4860869;28;102381;-65
2022/04/12 01:19:07;;;;;;;3.27;2.07;;;-0.10;99.90;-0.50;100764.00;;;;4877630;28;109885;-65
2022/04/12 01:21:41;;;;;;;2.30;2.00;;;-0.10;99.90;-0.50;100761.00;;;;4868724;28;108566;-64
2022/04/12 01:24:07;;;;;;;2.17;1.97;;;-0.10;99.90;-0.50;100761.00;;;;4842315;28;90100;-65
2022/04/12 01:26:33;;;;;;;2.43;1.73;;;-0.10;99.90;-0.50;100758.00;;;;4859158;28;88923;-65
2022/04/12 01:28:59;;;;;;;2.27;1.70;;;-0.20;99.90;-0.50;100752.00;;;;4857692;28;87996;-65
2022/04/12 01:31:26;;;;;;;5.10;1.90;;;-0.20;99.90;-0.60;100754.00;;;;4877649;28;108386;-65
2022/04/12 01:33:52;;;;;;;2.60;2.40;;;-0.20;99.90;-0.60;100755.00;;;;4876238;28;111096;-65
2022/04/12 01:36:19;;;;;;;3.40;2.63;;;-0.20;99.90;-0.50;100750.00;;;;4876937;28;88386;-65
2022/04/12 01:38:45;;;;;;;5.53;2.40;;;-0.20;99.90;-0.50;100763.00;;;;4859276;28;101419;-65
2022/04/12 01:41:10;;;;;;;4.83;2.53;;;-0.10;99.90;-0.50;100759.00;;;;4861448;28;98654;-65
2022/04/12 01:43:36;;;;;;;3.13;2.00;;;-0.20;99.90;-0.50;100760.00;;;;4863698;28;94326;-65
2022/04/12 01:46:02;;;;;;;3.63;2.73;;;-0.20;99.90;-0.50;100754.00;;;;4858933;28;89614;-66
2022/04/12 01:48:28;;;;;;;7.27;2.73;;;-0.20;99.90;-0.60;100756.00;;;;4856572;28;110119;-65
2022/04/12 01:50:54;;;;;;;4.50;2.30;;;-0.20;99.90;-0.60;100757.00;;;;4874409;28;87688;-65
2022/04/12 01:53:20;;;;;;;7.77;2.30;;;-0.20;99.90;-0.60;100758.00;;;;4858179;28;92123;-65
2022/04/12 01:55:46;;;;;;;3.93;2.87;;;-0.30;99.90;-0.70;100756.00;;;;4862790;28;117207;-65
2022/04/12 01:58:11;;;;;;;3.93;2.57;;;-0.40;99.90;-0.70;100747.00;;;;4877814;28;87740;-66
2022/04/12 02:00:37;;;;;;;2.23;2.03;;;-0.40;99.90;-0.70;100748.00;;;;4876906;28;107346;-65
2022/04/12 02:03:04;;;;;;;2.27;1.77;;;-0.40;99.90;-0.70;100749.00;;;;4876506;28;113073;-65
2022/04/12 02:05:30;;;;;;;6.10;2.90;;;-0.40;99.90;-0.70;100753.00;;;;4877741;28;109579;-65
2022/04/12 02:07:55;;;;;;;3.97;2.27;;;-0.40;99.90;-0.80;100747.00;;;;4863295;28;87808;-65
2022/04/12 02:10:22;;;;;;;2.70;2.20;;;-0.40;99.90;-0.80;100753.00;;;;4858444;28;107889;-65
2022/04/12 02:12:49;;;;;;;3.20;2.13;;;-0.50;99.90;-0.70;100758.00;;;;4875426;28;89437;-65
2022/04/12 02:15:15;;;;;;;2.23;1.90;;;-0.40;99.90;-0.70;100775.00;;;;4877931;28;88643;-65
2022/04/12 02:17:42;;;;;;;2.60;2.00;;;-0.40;99.90;-0.70;100758.00;;;;4866621;28;93542;-65
2022/04/12 02:20:09;;;;;;;2.13;1.80;;;-0.40;99.90;-0.70;100764.00;;;;4860802;28;88081;-65
2022/04/12 02:22:36;;;;;;;2.63;2.43;;;-0.40;99.90;-0.70;100764.00;;;;4858196;28;89167;-65
2022/04/12 02:25:03;;;;;;;2.63;2.40;;;-0.30;99.90;-0.80;100766.00;;;;4857381;28;88354;-66
2022/04/12 02:27:29;;;;;;;2.77;2.50;;;-0.40;99.90;-0.80;100757.00;;;;4862546;28;95036;-65
2022/04/12 02:29:54;;;;;;;3.23;2.63;;;-0.40;99.90;-0.80;100773.00;;;;4862366;28;106732;-66
2022/04/12 02:32:20;;;;;;;2.70;2.47;;;-0.50;99.90;-0.90;100765.00;;;;4860007;28;117959;-65
2022/04/12 02:34:46;;;;;;;3.70;2.33;;;-0.50;99.90;-0.90;100754.00;;;;4861166;28;116393;-65
2022/04/12 02:37:11;;;;;;;5.53;2.60;;;-0.50;99.90;-0.90;100766.00;;;;4859599;28;112542;-66
2022/04/12 02:39:37;;;;;;;2.67;2.33;;;-0.50;99.90;-0.90;100760.00;;;;4861153;28;108177;-65
2022/04/12 02:42:03;;;;;;;2.13;1.73;;;-0.60;99.90;-0.90;100773.00;;;;4869023;28;117276;-65
2022/04/12 02:44:29;;;;;;;4.17;2.93;;;-0.60;99.90;-0.90;100761.00;;;;4879296;28;108923;-65
2022/04/12 02:46:54;;;;;;;3.27;2.93;;;-0.60;99.90;-1.00;100759.00;;;;4867747;28;110305;-65
2022/04/12 02:49:20;;;;;;;3.20;2.23;;;-0.60;99.90;-1.00;100756.00;;;;4861542;28;92515;-65
2022/04/12 02:51:46;;;;;;;2.70;2.27;;;-0.60;99.90;-1.00;100759.00;;;;4859661;28;117400;-65
2022/04/12 02:54:13;;;;;;;3.87;2.83;;;-0.70;99.90;-1.00;100755.00;;;;4872120;28;100645;-65
2022/04/12 02:56:39;;;;;;;3.33;2.37;;;-0.60;99.90;-1.00;100752.00;;;;4862156;28;87837;-65
2022/04/12 02:59:05;;;;;;;3.27;1.97;;;-0.60;99.90;-0.90;100749.00;;;;4880770;28;98001;-65
2022/04/12 03:01:30;;;;;;;3.23;2.40;;;-0.60;99.90;-1.00;100755.00;;;;4871552;28;99161;-65
2022/04/12 03:03:57;;;;;;;3.20;2.13;;;-0.60;99.90;-1.00;100760.00;;;;4860856;28;88653;-66
2022/04/12 03:06:22;;;;;;;4.30;2.40;;;-0.70;99.90;-1.00;100756.00;;;;4867077;28;110509;-66
2022/04/12 03:08:48;;;;;;;2.60;2.40;;;-0.60;99.90;-1.00;100762.00;;;;4879338;28;108398;-66
2022/04/12 03:11:14;;;;;;;6.17;2.60;;;-0.60;99.90;-1.00;100759.00;;;;4880088;28;88466;-66
2022/04/12 03:13:39;;;;;;;2.43;2.23;;;-0.60;99.90;-1.00;100762.00;;;;4875123;28;115043;-66
2022/04/12 03:16:05;;;;;;;11.13;2.67;;;-0.70;99.90;-1.00;100763.00;;;;4879459;28;109662;-66
2022/04/12 03:18:31;;;;;;;2.40;2.20;;;-0.60;99.90;-1.00;100767.00;;;;4880017;28;108441;-67
2022/04/12 03:20:56;;;;;;;2.90;2.63;;;-0.70;99.90;-1.00;100758.00;;;;4879305;28;112773;-66
2022/04/12 03:23:22;;;;;;;3.13;2.70;;;-0.60;99.90;-1.00;100760.00;;;;4878513;28;117542;-66
2022/04/12 03:25:50;;;;;;;3.23;2.60;;;-0.60;99.90;-1.00;100751.00;;;;4877567;28;110965;-66
2022/04/12 03:28:16;;;;;;;4.57;2.70;;;-0.60;99.90;-1.00;100761.00;;;;4879462;28;87731;-66
2022/04/12 03:30:42;;;;;;;6.53;2.83;;;-0.50;99.90;-1.00;100754.00;;;;4878884;28;105932;-65
2022/04/12 03:33:08;;;;;;;3.67;2.00;;;-0.70;99.90;-1.00;100758.00;;;;4878435;28;89156;-65
2022/04/12 03:35:33;;;;;;;8.47;3.03;;;-0.60;99.90;-1.00;100757.00;;;;4880111;28;88446;-66
2022/04/12 03:38:02;;;;;;;3.37;2.77;;;-0.60;99.90;-1.00;100767.00;;;;4869303;28;107970;-66
2022/04/12 03:40:31;;;;;;;2.43;1.83;;;-0.60;99.90;-1.00;100767.00;;;;4867203;28;89207;-65
2022/04/12 03:43:04;;;;;;;3.17;2.87;;;-0.60;99.90;-1.00;100758.00;;;;4879577;28;87694;-65
2022/04/12 03:45:30;;;;;;;4.23;3.13;;;-0.60;99.90;-1.10;100763.00;;;;4879561;28;87774;-66
2022/04/12 03:47:56;;;;;;;3.50;2.93;;;-0.70;99.90;-1.10;100759.00;;;;4859633;28;101218;-65
2022/04/12 03:50:23;;;;;;;3.90;2.70;;;-0.70;99.90;-1.10;100771.00;;;;4861304;28;99833;-65
2022/04/12 03:52:50;;;;;;;3.67;3.03;;;-0.70;99.90;-1.10;100766.00;;;;4860088;28;89028;-65
2022/04/12 03:55:30;;;;;;;3.33;2.63;;;-0.70;99.90;-1.10;100753.00;;;;4862137;28;87533;-65
2022/04/12 03:58:06;;;;;;;2.70;2.23;;;-0.70;99.90;-1.20;100757.00;;;;4860277;28;87693;-65
2022/04/12 04:00:33;;;;;;;5.37;3.10;;;-0.70;99.90;-1.20;100757.00;;;;4860665;28;94715;-66
2022/04/12 04:02:59;;;;;;;3.10;2.57;;;-0.80;99.90;-1.20;100757.00;;;;4860116;28;87813;-66
2022/04/12 04:05:26;;;;;;;6.27;2.70;;;-0.80;99.90;-1.20;100766.00;;;;4859843;28;109162;-65
2022/04/12 04:07:52;;;;;;;5.43;2.30;;;-0.80;99.90;-1.20;100765.00;;;;4875269;28;99191;-65
2022/04/12 04:10:18;;;;;;;2.17;2.00;;;-0.80;99.90;-1.20;100767.00;;;;4858790;28;88479;-65
2022/04/12 04:12:44;;;;;;;5.13;3.07;;;-0.80;99.90;-1.20;100771.00;;;;4859923;28;88155;-65
2022/04/12 04:15:12;;;;;;;3.90;3.20;;;-0.70;99.90;-1.20;100766.00;;;;4859300;28;102940;-66
2022/04/12 04:17:45;;;;;;;4.23;3.57;;;-0.80;99.90;-1.20;100772.00;;;;4876755;28;88078;-66
2022/04/12 04:20:13;;;;;;;3.17;2.97;;;-0.90;99.90;-1.20;100766.00;;;;4879473;28;87724;-65
2022/04/12 04:22:40;;;;;;;2.60;2.20;;;-0.80;99.90;-1.20;100779.00;;;;4861158;28;88262;-65
2022/04/12 04:25:11;;;;;;;4.63;2.60;;;-0.80;99.90;-1.30;100765.00;;;;4860786;28;88062;-65
2022/04/12 04:27:39;;;;;;;3.93;2.10;;;-0.20;99.90;-1.20;100762.00;;;;4874304;28;102378;-66
2022/04/12 04:30:08;;;;;;;3.47;2.73;;;-0.90;99.90;-1.20;100758.00;;;;4878833;28;88851;-65
2022/04/12 04:32:34;;;;;;;3.90;2.37;;;-0.90;99.90;-1.20;100779.00;;;;4862402;28;88090;-65
2022/04/12 04:35:01;;;;;;;2.97;2.57;;;-0.80;99.90;-1.20;100773.00;;;;4860176;28;87594;-66
2022/04/12 04:37:27;;;;;;;5.33;2.60;;;-0.80;99.90;-1.20;100772.00;;;;4876178;28;87882;-65
2022/04/12 04:39:53;;;;;;;5.53;3.20;;;-0.80;99.90;-1.10;100773.00;;;;4878164;28;90058;-65
2022/04/12 04:42:20;;;;;;;3.37;2.20;;;-0.80;99.90;-1.10;100780.00;;;;4878275;28;88992;-65
2022/04/12 04:44:47;;;;;;;4.03;2.93;;;-0.70;99.90;-1.10;100773.00;;;;4879642;28;88099;-66
2022/04/12 04:47:13;;;;;;;4.70;3.47;;;-0.80;99.90;-1.00;100771.00;;;;4864940;28;89725;-66
2022/04/12 04:49:39;;;;;;;6.77;2.97;;;-0.70;99.90;-0.90;100776.00;;;;4859138;28;87961;-65
2022/04/12 04:52:05;;;;;;;3.50;2.83;;;0.10;99.90;-0.80;100773.00;;;;4857886;28;116935;-65
2022/04/12 04:54:31;;;;;;;4.87;3.63;;;-0.50;99.90;-0.70;100782.00;;;;4872679;28;87571;-66
2022/04/12 04:56:57;;;;;;;3.00;2.80;;;-0.40;99.90;-0.60;100770.00;;;;4878264;28;108280;-65
2022/04/12 04:59:22;;;;;;;3.53;3.03;;;-0.30;99.90;-0.50;100788.00;;;;4878002;28;118225;-66
2022/04/12 05:01:48;;;;;;;3.47;3.17;;;-0.20;99.90;-0.30;100782.00;;;;4875835;28;113564;-65
2022/04/12 05:04:14;;;;;;;2.90;2.67;;;-0.10;99.90;-0.20;100792.00;;;;4869463;28;88773;-66
2022/04/12 05:06:40;;;;;;;2.87;2.57;;;0.10;99.90;-0.10;100798.00;;;;4860783;28;107917;-65
2022/04/12 05:09:05;;;;;;;2.87;2.67;;;0.10;99.90;0.00;100786.00;;;;4877217;28;117252;-66
2022/04/12 05:11:31;;;;;;;3.93;2.57;;;0.80;99.90;0.20;100787.00;;;;4878318;28;87856;-65
2022/04/12 05:13:57;;;;;;;4.23;2.70;;;0.40;99.90;0.40;100791.00;;;;4878130;28;87667;-65
2022/04/12 05:16:23;;;;;;;3.67;3.10;;;0.60;99.90;0.60;100798.00;;;;4876647;28;102242;-65
2022/04/12 05:18:51;;;;;;;4.23;3.67;;;0.80;99.90;0.80;100804.00;;;;4877279;28;118507;-65
2022/04/12 05:21:18;;;;;;;3.73;2.83;;;1.00;99.90;1.00;100797.00;;;;4878477;28;88477;-65
2022/04/12 05:23:44;;;;;;;4.37;3.40;;;1.20;99.90;1.20;100795.00;;;;4874793;28;87694;-66
2022/04/12 05:26:10;;;;;;;5.67;3.10;;;1.40;99.90;1.40;100791.00;;;;4876147;28;87561;-65
2022/04/12 05:28:36;;;;;;;4.57;3.17;;;1.50;99.90;1.60;100794.00;;;;4873408;28;89857;-65
2022/04/12 05:31:02;;;;;;;3.83;2.83;;;1.80;99.90;1.80;100786.00;;;;4873573;28;89290;-65
2022/04/12 05:33:28;;;;;;;4.37;2.27;;;1.90;99.90;2.00;100788.00;;;;4873857;28;87855;-65
2022/04/12 05:35:53;;;;;;;5.17;3.10;;;2.10;99.90;2.10;100800.00;;;;4873851;28;109251;-65
2022/04/12 05:38:19;;;;;;;3.43;3.13;;;2.30;99.90;2.30;100799.00;;;;4873976;28;88426;-65
2022/04/12 05:40:45;;;;;;;5.37;3.37;;;2.40;99.90;2.50;100800.00;;;;4874495;28;87820;-65
2022/04/12 05:43:11;;;;;;;5.20;2.87;;;2.50;99.90;2.70;100790.00;;;;4873112;28;97389;-66
2022/04/12 05:45:36;;;;;;;4.03;3.13;;;3.40;99.90;2.90;100790.00;;;;4873552;28;86975;-65
2022/04/12 05:48:03;;;;;;;3.50;3.20;;;3.00;99.90;3.20;100805.00;;;;4873395;28;88845;-65
2022/04/12 05:50:29;;;;;;;4.47;2.93;;;3.20;99.90;3.50;100810.00;;;;4874117;28;88702;-65
2022/04/12 05:52:56;;;;;;;5.63;3.13;;;3.50;99.90;3.80;100805.00;;;;4872585;28;92752;-65
2022/04/12 05:55:23;;;;;;;3.87;2.90;;;3.80;99.90;4.10;100806.00;;;;4850463;28;92135;-66
2022/04/12 05:57:59;;;;;;;9.63;3.20;;;4.10;99.90;4.40;100811.00;;;;4873331;28;87847;-66
2022/04/12 06:00:28;;;;;;;3.27;2.67;;;4.40;99.90;4.70;100813.00;;;;4873865;28;88548;-65
2022/04/12 06:02:54;;;;;;;5.13;2.60;;;4.60;99.90;4.90;100822.00;;;;4874369;28;87813;-65
2022/04/12 06:05:22;;;;;;;4.97;2.83;;;4.90;99.90;5.10;100823.00;;;;4874459;28;88068;-66
2022/04/12 06:07:48;;;;;;;2.73;2.13;;;5.10;99.90;5.30;100825.00;;;;4871700;28;89047;-65
2022/04/12 06:10:15;;;;;;;2.97;2.57;;;5.30;99.90;5.40;100834.00;;;;4874632;28;88743;-65
2022/04/12 06:12:41;;;;;;;3.23;2.93;;;5.40;99.90;5.50;100828.00;;;;4870731;28;88141;-66
2022/04/12 06:15:08;;;;;;;6.10;3.27;;;5.50;99.90;5.60;100822.00;;;;4873239;28;87448;-65
2022/04/12 06:17:36;;;;;;;4.03;2.93;;;5.60;99.90;5.70;100829.00;;;;4872850;28;112178;-65
2022/04/12 06:20:09;;;;;;;4.07;3.03;;;6.00;99.90;5.90;100821.00;;;;4866664;28;101787;-65
2022/04/12 06:22:36;;;;;;;5.47;3.33;;;5.90;99.90;6.00;100827.00;;;;4872024;28;87979;-65
2022/04/12 06:25:02;;;;;;;3.40;3.00;;;6.00;99.90;6.20;100831.00;;;;4870616;28;87737;-65
2022/04/12 06:27:41;;;;;;;6.00;2.80;;;6.50;99.90;6.40;100851.00;;;;4869014;28;110231;-65
2022/04/12 06:30:13;;;;;;;2.40;2.20;;;6.40;99.90;6.70;100846.00;;;;4855541;28;108999;-65
2022/04/12 06:32:39;;;;;;;3.53;2.70;;;6.70;99.90;7.00;100854.00;;;;4867941;28;87754;-65
2022/04/12 06:35:09;;;;;;;6.20;2.63;;;7.00;99.90;7.20;100853.00;;;;4873888;28;87213;-65
2022/04/12 06:37:35;;;;;;;2.80;2.57;;;7.20;99.90;7.50;100860.00;;;;4873324;28;89079;-65
2022/04/12 06:40:01;;;;;;;2.43;1.93;;;7.40;99.90;7.70;100857.00;;;;4872915;28;88935;-65
2022/04/12 06:42:27;;;;;;;9.80;2.70;;;7.70;99.90;8.00;100862.00;;;;4868781;28;88858;-65
2022/04/12 06:44:53;;;;;;;3.17;2.47;;;7.90;99.90;8.20;100869.00;;;;4873862;28;87812;-65
2022/04/12 06:47:19;;;;;;;2.53;2.30;;;8.20;99.30;8.40;100863.00;;;;4873581;28;89142;-64
2022/04/12 06:49:50;;;;;;;2.67;1.97;;;8.40;98.50;8.70;100870.00;;;;4872717;28;118033;-65
2022/04/12 06:52:18;;;;;;;4.87;3.03;;;8.70;98.20;9.10;100869.00;;;;4872205;28;87760;-65
2022/04/12 06:54:44;;;;;;;6.43;2.50;;;9.00;95.90;9.30;100875.00;;;;4869966;28;87816;-65
2022/04/12 06:57:10;;;;;;;2.93;2.33;;;9.20;95.30;9.60;100867.00;;;;4865710;28;118278;-65
2022/04/12 06:59:36;;;;;;;3.17;2.07;;;9.50;94.60;9.90;100875.00;;;;4873748;28;96612;-64
2022/04/12 07:02:03;;;;;;;5.07;2.37;;;9.80;94.30;10.30;100870.00;;;;4871260;28;87708;-64
2022/04/12 07:04:29;;;;;;;4.30;2.00;;;10.10;94.10;10.60;100875.00;;;;4874003;28;87681;-65
2022/04/12 07:06:56;;;;;;;4.30;2.20;;;10.50;92.70;10.90;100878.00;;;;4866886;28;89789;-65
2022/04/12 07:09:23;;;;;;;4.23;2.07;;;10.80;91.20;11.20;100869.00;;;;4867868;28;88253;-65
2022/04/12 07:11:50;;;;;;;3.83;2.43;;;11.10;90.30;11.60;100863.00;;;;4874929;28;87764;-65
2022/04/12 07:14:16;;;;;;;4.03;2.23;;;11.40;89.50;11.90;100864.00;;;;4872493;28;93740;-65
2022/04/12 07:16:42;;;;;;;3.53;2.00;;;11.70;83.20;12.10;100868.00;;;;4874899;28;88795;-66
2022/04/12 07:19:08;;;;;;;3.57;2.27;;;12.00;81.60;12.40;100876.00;;;;4873201;28;117231;-65
2022/04/12 07:21:34;;;;;;;3.70;1.60;;;12.30;80.50;12.60;100871.00;;;;4876236;28;110019;-65
2022/04/12 07:24:00;;;;;;;2.30;2.10;;;12.50;77.80;12.80;100865.00;;;;4877014;28;87362;-65
2022/04/12 07:26:29;;;;;;;1.67;1.57;;;12.70;77.40;13.10;100866.00;;;;4876818;28;88940;-66
2022/04/12 07:28:55;;;;;;;2.17;1.83;;;13.00;72.60;13.30;100861.00;;;;4876286;28;99812;-65
2022/04/12 07:31:20;;;;;;;2.70;1.67;;;13.20;68.20;13.50;100863.00;;;;4875021;28;106250;-66
2022/04/12 07:33:46;;;;;;;2.10;1.90;;;13.40;69.20;13.70;100854.00;;;;4873895;28;109377;-65
2022/04/12 07:36:12;;;;;;;2.27;1.77;;;13.60;67.00;13.80;100870.00;;;;4876655;28;87800;-65
2022/04/12 07:38:37;;;;;;;3.70;1.67;;;13.80;61.70;13.90;100861.00;;;;4875410;28;88945;-64
2022/04/12 07:41:04;;;;;;;3.70;2.63;;;13.80;59.90;14.00;100862.00;;;;4875419;28;111498;-65
2022/04/12 07:43:30;;;;;;;3.27;1.87;;;13.90;61.60;14.30;100864.00;;;;4876004;28;88274;-65
2022/04/12 07:45:56;;;;;;;3.93;1.37;;;14.10;61.30;14.50;100863.00;;;;4873080;28;117413;-65
2022/04/12 07:48:22;;;;;;;1.33;1.17;;;14.30;58.10;14.70;100866.00;;;;4875374;28;108047;-65
2022/04/12 07:50:48;;;;;;;1.67;1.00;;;14.50;57.40;14.90;100861.00;;;;4875448;28;110263;-65
2022/04/12 07:53:14;;;;;;;1.90;1.20;;;14.70;54.80;14.90;100865.00;;;;4873898;28;109893;-65
2022/04/12 07:55:39;;;;;;;1.60;1.30;;;14.80;53.90;15.00;100862.00;;;;4874932;28;118563;-66
2022/04/12 07:58:05;;;;;;;1.00;0.90;;;14.80;52.50;15.00;100856.00;;;;4875123;28;117619;-63
2022/04/12 08:00:31;;;;;;;2.97;1.27;;;14.90;52.40;15.00;100864.00;;;;4875566;28;109515;-65
2022/04/12 08:02:57;;;;;;;5.07;1.20;;;14.90;53.30;15.20;100864.00;;;;4875716;28;87921;-68
2022/04/12 08:05:23;;;;;;;3.43;1.47;;;15.10;52.30;15.30;100856.00;;;;4856859;28;117716;-68
2022/04/12 08:07:48;;;;;;;4.13;1.75;;;15.10;51.60;15.40;100862.00;;;;4872413;28;88481;-67
2022/04/12 08:10:16;;;;;;;2.43;1.23;;;15.20;51.80;15.60;100874.00;;;;4876058;28;87999;-67
2022/04/12 08:12:43;;;;;;;1.33;1.23;;;15.40;52.30;15.80;100874.00;;;;4872522;28;87128;-69
2022/04/12 08:15:10;;;;;;;1.48;1.30;;;15.60;51.20;15.90;100868.00;;;;4871390;28;106152;-69
2022/04/12 08:17:37;;;;;;;1.92;1.70;;;15.80;50.30;16.00;100866.00;;;;4873160;28;107183;-69
2022/04/12 08:20:09;;;;;;;6.90;2.38;;;15.90;50.80;16.20;100866.00;;;;4842075;28;89295;-69
2022/04/12 08:22:36;;;;;;;1.58;1.35;;;16.00;51.20;16.50;100874.00;;;;4875214;28;87716;-69
2022/04/12 08:25:03;;;;;;;1.27;1.17;;;16.30;51.20;16.70;100878.00;;;;4875707;28;88755;-68
2022/04/12 08:27:29;;;;;;;1.38;1.13;;;16.50;49.50;16.80;100872.00;;;;4870316;28;98162;-69
2022/04/12 08:29:55;;;;;;;2.78;1.52;;;16.60;49.80;17.10;100867.00;;;;4876195;28;88064;-68
2022/04/12 08:32:21;;;;;;;1.60;0.80;;;16.90;49.60;17.40;100872.00;;;;4873538;28;107514;-68
2022/04/12 08:34:47;;;;;;;1.60;0.95;;;17.10;48.00;17.50;100870.00;;;;4875534;28;88059;-69
2022/04/12 08:37:13;;;;;;;2.38;1.00;;;17.30;47.20;17.50;100875.00;;;;4872530;28;117621;-68
2022/04/12 08:39:39;;;;;;;2.05;1.48;;;17.40;44.40;17.30;100865.00;;;;4874828;28;110783;-68
2022/04/12 08:42:05;;;;;;;0.80;0.77;;;17.30;44.60;17.30;100875.00;;;;4871880;28;107874;-68
2022/04/12 08:44:34;;;;;;;0.82;0.77;;;17.20;45.00;17.30;100880.00;;;;4874700;28;89630;-68
2022/04/12 08:47:04;;;;;;;5.28;1.23;;;17.20;44.10;17.40;100884.00;;;;4868848;28;89650;-69
2022/04/12 08:49:31;;;;;;;1.27;1.05;;;17.20;44.90;17.50;100878.00;;;;4869307;28;88103;-70
2022/04/12 08:51:57;;;;;;;2.08;1.23;;;17.30;45.40;17.70;100877.00;;;;4854437;28;87757;-69
2022/04/12 08:54:23;;;;;;;2.28;1.00;;;17.40;46.10;18.00;100885.00;;;;4868929;28;117717;-69
2022/04/12 08:56:50;;;;;;;2.22;0.90;;;17.60;45.80;18.20;100878.00;;;;4874151;28;117437;-69
2022/04/12 08:59:17;;;;;;;2.15;1.20;;;17.90;44.60;18.30;100880.00;;;;4875645;28;87722;-68
2022/04/12 09:01:44;;;;;;;2.10;1.90;;;18.00;44.00;18.30;100879.00;;;;4874433;28;99997;-69
2022/04/12 09:04:11;;;;;;;1.17;1.15;;;18.10;40.90;18.20;100876.00;;;;4874489;28;89136;-68
2022/04/12 09:06:57;;;;;;;1.35;1.23;;;17.90;40.90;17.90;100880.00;;;;4875085;28;88060;-68
2022/04/12 09:09:29;;;;;;;2.70;1.23;;;17.80;39.80;17.60;100878.00;;;;4874017;28;99215;-68
2022/04/12 09:12:06;;;;;;;3.95;1.73;;;17.50;41.00;17.40;100880.00;;;;4857538;28;88012;-68
2022/04/12 09:14:52;;;;;;;1.75;1.50;;;17.30;41.60;17.20;100877.00;;;;4874238;28;88817;-68
2022/04/12 09:17:35;;;;;;;1.20;1.15;;;17.10;41.40;16.90;100870.00;;;;4854550;28;87960;-68
2022/04/12 09:20:09;;;;;;;2.78;1.40;;;16.90;41.20;16.80;100868.00;;;;4857616;28;87812;-68
2022/04/12 09:22:35;;;;;;;1.50;1.15;;;16.60;41.60;16.80;100864.00;;;;4874949;28;88256;-68
2022/04/12 09:25:04;;;;;;;1.38;1.27;;;16.60;42.10;16.80;100863.00;;;;4874480;28;88140;-68
2022/04/12 09:27:33;;;;;;;2.80;1.00;;;16.60;42.90;17.00;100860.00;;;;4874938;28;87750;-68
2022/04/12 09:30:05;;;;;;;1.25;1.08;;;16.70;42.70;17.10;100864.00;;;;4875141;28;88046;-67
2022/04/12 09:32:45;;;;;;;2.80;1.88;;;16.80;43.40;17.10;100859.00;;;;4875143;28;87907;-68
2022/04/12 09:35:11;;;;;;;3.00;1.40;;;16.80;43.00;17.10;100860.00;;;;4873523;28;109396;-68
2022/04/12 09:37:40;;;;;;;39.97;24.63;;;16.90;42.60;17.30;100864.00;;;;4872905;28;88876;-68
2022/04/12 09:40:13;;;;;;;3.33;2.97;;;16.90;43.20;17.50;100870.00;;;;4869660;28;101449;-68
2022/04/12 09:42:53;;;;;;;1.33;1.23;;;17.10;42.00;17.60;100870.00;;;;4873394;28;87833;-69
2022/04/12 09:45:23;;;;;;;1.48;1.38;;;17.20;42.00;17.70;100871.00;;;;4856874;28;88099;-68
2022/04/12 09:47:54;;;;;;;8.68;5.35;;;17.40;42.00;17.80;100869.00;;;;4873702;28;101205;-68
2022/04/12 09:50:25;;;;;;;2.58;1.33;;;17.40;41.30;18.10;100853.00;;;;4873830;28;87841;-70
2022/04/12 09:52:56;;;;;;;2.83;1.60;;;17.60;41.70;18.40;100857.00;;;;4873848;28;87039;-69
2022/04/12 09:55:36;;;;;;;2.53;1.67;;;17.80;41.30;18.60;100858.00;;;;4871345;28;109352;-68
2022/04/12 09:58:05;;;;;;;4.25;2.35;;;18.00;40.90;18.60;100855.00;;;;4873435;28;88674;-69
2022/04/12 10:00:32;;;;;;;1.85;1.70;;;18.20;40.80;18.80;100852.00;;;;4868254;28;88846;-68
2022/04/12 10:03:07;;;;;;;2.00;1.85;;;18.30;40.60;19.00;100852.00;;;;4873717;28;87805;-70
2022/04/12 10:05:33;;;;;;;1.52;1.30;;;18.50;40.20;19.10;100852.00;;;;4853277;28;87661;-67
2022/04/12 10:08:03;;;;;;;4.20;1.83;;;18.70;39.90;19.20;100845.00;;;;4870147;28;88688;-68
2022/04/12 10:10:29;;;;;;;2.20;1.73;;;18.80;39.60;19.30;100846.00;;;;4872694;28;88070;-69
2022/04/12 10:12:58;;;;;;;6.60;1.55;;;18.90;39.50;19.20;100833.00;;;;4873445;28;87872;-69
2022/04/12 10:15:25;;;;;;;3.03;1.63;;;18.80;38.40;19.00;100838.00;;;;4873447;28;100149;-69
2022/04/12 10:17:52;;;;;;;3.83;1.20;;;18.70;38.80;19.00;100849.00;;;;4871633;28;106943;-69
2022/04/12 10:20:19;;;;;;;1.60;1.50;;;18.70;39.00;19.20;100849.00;;;;4873709;28;101108;-70
2022/04/12 10:22:46;;;;;;;1.30;1.20;;;18.80;39.60;19.50;100839.00;;;;4871183;28;91177;-69
2022/04/12 10:25:25;;;;;;;2.45;1.38;;;19.00;38.30;19.70;100843.00;;;;4872497;28;107996;-68
2022/04/12 10:27:56;;;;;;;1.88;1.52;;;19.10;38.30;19.90;100829.00;;;;4854451;28;118799;-69
2022/04/12 10:30:28;;;;;;;1.83;1.40;;;19.40;38.40;19.80;100836.00;;;;4855987;28;91468;-69
2022/04/12 10:33:26;;;;;;;1.88;1.55;;;19.50;36.30;19.80;100822.00;;;;4866942;28;87947;-68
2022/04/12 10:35:55;;;;;;;2.75;1.40;;;19.50;36.50;19.90;100813.00;;;;4856157;28;88210;-69
2022/04/12 10:38:23;;;;;;;2.10;1.30;;;19.50;36.20;19.90;100809.00;;;;4874580;28;88081;-68
2022/04/12 10:40:52;;;;;;;2.42;1.10;;;19.50;36.50;20.00;100816.00;;;;4872458;28;87792;-69
2022/04/12 10:43:33;;;;;;;2.03;1.40;;;19.60;36.70;20.20;100813.00;;;;4873163;28;88295;-69
2022/04/12 10:46:03;;;;;;;3.88;2.03;;;19.70;36.90;20.50;100814.00;;;;4873969;28;88124;-69
2022/04/12 10:48:31;;;;;;;0.95;0.65;;;20.00;36.50;20.70;100820.00;;;;4871945;28;111124;-69
2022/04/12 10:51:00;;;;;;;1.00;0.88;;;20.20;35.80;20.80;100830.00;;;;4872809;28;88886;-69